createdAt,value
2022-09-21T00:02:20.749Z,101575.16
2022-09-21T00:05:22.588Z,101587.56
2022-09-21T00:08:25.190Z,101587.69
2022-09-21T00:11:30.354Z,101581.53
2022-09-21T00:14:32.115Z,101590.63
2022-09-21T00:17:37.591Z,101587.13
2022-09-21T00:20:43.526Z,101583.63
2022-09-21T00:23:45.854Z,101581.06
2022-09-21T00:26:47.509Z,101584.66
2022-09-21T00:29:59.019Z,101586.47
2022-09-21T00:33:00.703Z,101588.31
2022-09-21T00:36:07.769Z,101600.00
2022-09-21T00:39:09.919Z,101590.44
2022-09-21T00:42:26.763Z,101598.41
2022-09-21T00:45:28.493Z,101602.06
2022-09-21T00:48:30.993Z,101599.44
2022-09-21T00:51:32.673Z,101603.03
2022-09-21T00:54:44.875Z,101598.72
2022-09-21T00:57:49.666Z,101606.72
2022-09-21T01:00:52.380Z,101607.69
2022-09-21T01:03:56.826Z,101602.38
2022-09-21T01:07:04.082Z,101602.41
2022-09-21T01:10:10.282Z,101612.13
2022-09-21T01:13:36.332Z,101613.13
2022-09-21T01:16:38.780Z,101618.66
2022-09-21T01:20:11.244Z,101615.09
2022-09-21T01:23:28.108Z,101617.00
2022-09-21T01:26:56.832Z,101619.59
2022-09-21T01:30:07.879Z,101623.25
2022-09-21T01:33:13.881Z,101624.19
2022-09-21T01:36:20.855Z,101626.88
2022-09-21T01:39:23.382Z,101634.06
2022-09-21T01:42:28.440Z,101625.31
2022-09-21T01:45:38.360Z,101624.56
2022-09-21T01:48:44.749Z,101621.13
2022-09-21T01:51:52.014Z,101624.75
2022-09-21T01:55:00.033Z,101628.22
2022-09-21T01:58:12.146Z,101629.22
2022-09-21T02:01:19.720Z,101627.47
2022-09-21T02:04:21.605Z,101623.25
2022-09-21T02:07:25.089Z,101624.22
2022-09-21T02:10:33.422Z,101622.41
2022-09-21T02:13:39.340Z,101626.03
2022-09-21T02:17:00.754Z,101626.03
2022-09-21T02:20:15.407Z,101621.59
2022-09-21T02:23:45.932Z,101620.75
2022-09-21T02:27:05.267Z,101623.50
2022-09-21T02:30:20.360Z,101615.53
2022-09-21T02:33:41.611Z,101616.53
2022-09-21T02:37:02.187Z,101621.00
2022-09-21T02:40:13.532Z,101619.22
2022-09-21T02:43:27.766Z,101617.38
2022-09-21T02:46:36.298Z,101613.91
2022-09-21T02:49:42.557Z,101616.78
2022-09-21T02:52:44.628Z,101618.66
2022-09-21T02:55:55.709Z,101613.41
2022-09-21T02:59:03.223Z,101616.06
2022-09-21T03:02:06.978Z,101622.31
2022-09-21T03:05:11.164Z,101617.09
2022-09-21T03:08:12.758Z,101620.63
2022-09-21T03:11:18.805Z,101623.25
2022-09-21T03:14:20.466Z,101623.41
2022-09-21T03:17:22.409Z,101640.38
2022-09-21T03:20:24.011Z,101629.03
2022-09-21T03:23:25.801Z,101633.50
2022-09-21T03:26:27.684Z,101642.34
2022-09-21T03:29:29.288Z,101638.81
2022-09-21T03:32:30.886Z,101638.00
2022-09-21T03:35:35.945Z,101642.50
2022-09-21T03:38:38.204Z,101645.25
2022-09-21T03:41:39.938Z,101645.28
2022-09-21T03:44:41.588Z,101650.59
2022-09-21T03:47:43.395Z,101645.41
2022-09-21T03:50:45.621Z,101644.56
2022-09-21T03:53:47.314Z,101647.25
2022-09-21T03:56:48.983Z,101649.09
2022-09-21T03:59:50.636Z,101648.34
2022-09-21T04:02:55.670Z,101643.19
2022-09-21T04:05:57.847Z,101646.94
2022-09-21T04:09:02.544Z,101650.59
2022-09-21T04:12:07.503Z,101645.28
2022-09-21T04:15:14.478Z,101648.81
2022-09-21T04:18:16.132Z,101655.13
2022-09-21T04:21:18.772Z,101652.53
2022-09-21T04:24:23.288Z,101649.94
2022-09-21T04:27:25.071Z,101643.84
2022-09-21T04:30:26.855Z,101647.41
2022-09-21T04:33:28.523Z,101645.69
2022-09-21T04:36:36.419Z,101646.53
2022-09-21T04:39:40.957Z,101654.50
2022-09-21T04:42:42.733Z,101652.84
2022-09-21T04:45:53.024Z,101653.81
2022-09-21T04:48:55.045Z,101659.16
2022-09-21T04:51:59.377Z,101662.75
2022-09-21T04:55:01.004Z,101655.72
2022-09-21T04:58:02.706Z,101659.38
2022-09-21T05:01:06.203Z,101659.41
2022-09-21T05:04:07.999Z,101662.09
2022-09-21T05:07:09.809Z,101668.41
2022-09-21T05:10:11.976Z,101676.38
2022-09-21T05:13:19.741Z,101667.53
2022-09-21T05:16:25.157Z,101673.72
2022-09-21T05:19:34.831Z,101676.47
2022-09-21T05:22:36.662Z,101675.63
2022-09-21T05:25:45.025Z,101680.91
2022-09-21T05:28:47.176Z,101679.00
2022-09-21T05:31:54.634Z,101678.97
2022-09-21T05:35:21.073Z,101681.47
2022-09-21T05:38:23.062Z,101679.63
2022-09-21T05:41:25.049Z,101681.19
2022-09-21T05:44:27.046Z,101687.31
2022-09-21T05:47:51.680Z,101693.22
2022-09-21T05:51:15.560Z,101690.53
2022-09-21T05:54:31.386Z,101698.25
2022-09-21T05:57:48.170Z,101698.03
2022-09-21T06:01:15.350Z,101696.94
2022-09-21T06:04:17.363Z,101698.47
2022-09-21T06:07:19.148Z,101699.88
2022-09-21T06:10:20.853Z,101701.28
2022-09-21T06:13:22.551Z,101703.66
2022-09-21T06:16:24.243Z,101718.41
2022-09-21T06:19:26.010Z,101719.88
2022-09-21T06:22:27.645Z,101723.94
2022-09-21T06:25:29.299Z,101725.41
2022-09-21T06:28:30.978Z,101716.97
2022-09-21T06:31:33.077Z,101717.47
2022-09-21T06:34:34.767Z,101722.28
2022-09-21T06:37:38.418Z,101712.19
2022-09-21T06:40:40.057Z,101719.69
2022-09-21T06:43:41.764Z,101718.47
2022-09-21T06:46:43.476Z,101720.69
2022-09-21T06:49:45.165Z,101722.00
2022-09-21T06:52:47.338Z,101723.38
2022-09-21T06:55:48.980Z,101721.09
2022-09-21T06:58:51.601Z,101724.16
2022-09-21T07:01:55.760Z,101725.44
2022-09-21T07:04:58.711Z,101724.78
2022-09-21T07:08:00.603Z,101727.78
2022-09-21T07:11:02.819Z,101725.38
2022-09-21T07:14:05.412Z,101728.41
2022-09-21T07:17:08.538Z,101720.84
2022-09-21T07:20:10.211Z,101723.81
2022-09-21T07:23:19.954Z,101730.28
2022-09-21T07:26:22.681Z,101726.28
2022-09-21T07:29:24.359Z,101736.47
2022-09-21T07:32:26.429Z,101737.75
2022-09-21T07:35:28.086Z,101740.59
2022-09-21T07:38:29.840Z,101736.53
2022-09-21T07:41:31.768Z,101740.47
2022-09-21T07:44:34.269Z,101738.84
2022-09-21T07:47:35.948Z,101740.13
2022-09-21T07:50:38.596Z,101738.88
2022-09-21T07:53:45.287Z,101738.31
2022-09-21T07:57:06.998Z,101741.22
2022-09-21T08:00:20.708Z,101744.38
2022-09-21T08:03:35.042Z,101739.56
2022-09-21T08:06:42.034Z,101736.41
2022-09-21T08:32:51.143Z,101752.31
2022-09-21T08:35:55.693Z,101750.06
2022-09-21T08:38:57.294Z,101749.91
2022-09-21T08:42:09.617Z,101747.91
2022-09-21T08:45:16.923Z,101750.34
2022-09-21T08:48:28.268Z,101741.00
2022-09-21T08:51:36.567Z,101741.00
2022-09-21T08:54:48.987Z,101740.81
2022-09-21T08:57:50.654Z,101744.28
2022-09-21T09:01:20.172Z,101743.97
2022-09-21T09:04:50.557Z,101748.00
2022-09-21T09:08:24.257Z,101752.00
2022-09-21T09:11:28.840Z,101759.69
2022-09-21T09:14:49.031Z,101754.31
2022-09-21T09:17:56.524Z,101752.94
2022-09-21T09:21:05.072Z,101756.91
2022-09-21T09:24:41.768Z,101757.06
2022-09-21T09:27:46.618Z,101755.56
2022-09-21T09:30:57.312Z,101755.78
2022-09-21T09:34:12.834Z,101756.09
2022-09-21T09:37:16.860Z,101757.28
2022-09-21T09:40:30.868Z,101757.97
2022-09-21T09:44:10.303Z,101761.06
2022-09-21T09:47:36.637Z,101763.09
2022-09-21T09:50:40.772Z,101768.59
2022-09-21T09:53:42.511Z,101757.16
2022-09-21T09:56:44.195Z,101764.28
2022-09-21T09:59:54.958Z,101767.28
2022-09-21T10:02:58.732Z,101760.69
2022-09-21T10:06:00.332Z,101757.88
2022-09-21T10:09:19.583Z,101755.31
2022-09-21T10:12:27.398Z,101759.34
2022-09-21T10:15:29.777Z,101753.53
2022-09-21T10:18:58.982Z,101752.66
2022-09-21T10:22:03.988Z,101755.72
2022-09-21T10:25:08.375Z,101751.75
2022-09-21T10:28:13.497Z,101751.47
2022-09-21T10:31:20.931Z,101749.56
2022-09-21T10:34:23.951Z,101748.78
2022-09-21T10:37:28.917Z,101742.16
2022-09-21T10:40:37.499Z,101741.31
2022-09-21T10:43:43.893Z,101743.31
2022-09-21T10:46:47.652Z,101748.50
2022-09-21T10:49:54.839Z,101748.28
2022-09-21T10:53:30.184Z,101747.22
2022-09-21T10:56:31.841Z,101746.34
2022-09-21T10:59:37.057Z,101743.53
2022-09-21T11:02:39.163Z,101745.94
2022-09-21T11:05:49.337Z,101745.31
2022-09-21T11:09:02.762Z,101734.53
2022-09-21T11:12:30.141Z,101739.44
2022-09-21T11:15:43.787Z,101733.72
2022-09-21T11:19:01.275Z,101743.75
2022-09-21T11:22:08.779Z,101745.06
2022-09-21T11:25:23.429Z,101737.41
2022-09-21T11:28:33.584Z,101736.22
2022-09-21T11:31:41.313Z,101741.28
2022-09-21T11:34:48.668Z,101740.09
2022-09-21T11:38:13.514Z,101741.59
2022-09-21T11:41:35.766Z,101727.25
2022-09-21T11:44:53.174Z,101729.50
2022-09-21T11:48:40.099Z,101727.81
2022-09-21T11:52:45.724Z,101725.00
2022-09-21T12:00:44.974Z,101724.06
2022-09-21T12:04:46.801Z,101721.53
2022-09-21T12:08:33.673Z,101717.13
2022-09-21T12:12:44.277Z,101711.78
2022-09-21T12:16:07.567Z,101706.94
2022-09-21T12:19:24.523Z,101712.31
2022-09-21T12:22:34.738Z,101713.09
2022-09-21T12:25:42.883Z,101703.91
2022-09-21T12:29:00.998Z,101704.91
2022-09-21T12:32:28.876Z,101704.34
2022-09-21T12:35:56.927Z,101702.03
2022-09-21T12:39:18.307Z,101700.06
2022-09-21T12:42:43.871Z,101702.66
2022-09-21T12:45:56.884Z,101694.53
2022-09-21T12:49:02.124Z,101695.97
2022-09-21T12:52:06.823Z,101689.38
2022-09-21T12:55:21.831Z,101685.28
2022-09-21T12:58:51.246Z,101680.97
2022-09-21T13:02:05.699Z,101680.28
2022-09-21T13:05:26.908Z,101685.78
2022-09-21T13:08:37.397Z,101685.66
2022-09-21T13:11:57.532Z,101671.53
2022-09-21T13:15:05.384Z,101678.00
2022-09-21T13:18:18.332Z,101671.84
2022-09-21T13:21:26.332Z,101675.50
2022-09-21T13:24:30.677Z,101678.22
2022-09-21T13:27:57.878Z,101671.97
2022-09-21T13:31:09.908Z,101672.91
2022-09-21T13:34:37.125Z,101677.44
2022-09-21T13:37:39.749Z,101675.81
2022-09-21T13:40:50.337Z,101674.19
2022-09-21T13:44:01.062Z,101670.72
2022-09-21T13:47:08.380Z,101664.47
2022-09-21T13:50:31.459Z,101659.09
2022-09-21T13:53:39.106Z,101656.38
2022-09-21T13:56:42.987Z,101658.00
2022-09-21T13:59:47.372Z,101653.28
2022-09-21T14:02:49.139Z,101649.63
2022-09-21T14:06:16.696Z,101647.59
2022-09-21T14:09:39.048Z,101650.19
2022-09-21T14:12:45.494Z,101642.75
2022-09-21T14:15:47.242Z,101646.00
2022-09-21T14:18:48.957Z,101649.16
2022-09-21T14:22:09.479Z,101645.75
2022-09-21T14:25:52.318Z,101646.06
2022-09-21T14:28:54.434Z,101648.25
2022-09-21T14:32:01.314Z,101646.88
2022-09-21T14:35:10.951Z,101636.53
2022-09-21T14:38:59.594Z,101636.94
2022-09-21T14:42:12.423Z,101635.56
2022-09-21T14:45:18.486Z,101629.88
2022-09-21T14:48:51.836Z,101633.34
2022-09-21T14:52:20.158Z,101626.97
2022-09-21T14:55:29.360Z,101623.41
2022-09-21T14:58:45.185Z,101621.34
2022-09-21T15:02:14.445Z,101621.34
2022-09-21T15:05:27.741Z,101612.59
2022-09-21T15:09:14.642Z,101606.34
2022-09-21T15:12:54.323Z,101612.16
2022-09-21T15:16:17.883Z,101599.75
2022-09-21T15:19:28.112Z,101594.78
2022-09-21T15:22:31.853Z,101596.41
2022-09-21T15:25:33.967Z,101597.88
2022-09-21T15:29:05.130Z,101598.41
2022-09-21T15:32:01.939Z,101593.69
2022-09-21T15:35:27.731Z,101600.69
2022-09-21T15:38:34.399Z,101593.91
2022-09-21T15:41:44.880Z,101595.00
2022-09-21T15:44:49.199Z,101596.16
2022-09-21T15:47:51.922Z,101597.56
2022-09-21T15:51:10.742Z,101595.97
2022-09-21T15:54:25.118Z,101598.97
2022-09-21T15:57:41.322Z,101601.28
2022-09-21T16:00:54.932Z,101603.31
2022-09-21T16:04:06.381Z,101601.81
2022-09-21T16:07:24.646Z,101605.78
2022-09-21T16:10:38.323Z,101601.56
2022-09-21T16:13:59.436Z,101596.59
2022-09-21T16:17:13.011Z,101595.19
2022-09-21T16:20:23.487Z,101596.69
2022-09-21T16:23:30.277Z,101600.69
2022-09-21T16:26:36.370Z,101593.22
2022-09-21T16:29:40.276Z,101595.69
2022-09-21T16:32:42.240Z,101598.25
2022-09-21T16:35:44.263Z,101597.16
2022-09-21T16:38:56.059Z,101598.53
2022-09-21T16:42:03.051Z,101599.25
2022-09-21T16:45:11.518Z,101595.44
2022-09-21T16:48:13.284Z,101603.38
2022-09-21T16:51:22.337Z,101600.41
2022-09-21T16:54:26.062Z,101599.28
2022-09-21T16:57:32.713Z,101601.66
2022-09-21T17:00:40.711Z,101595.91
2022-09-21T17:03:42.845Z,101596.63
2022-09-21T17:06:44.865Z,101601.78
2022-09-21T17:09:47.853Z,101597.09
2022-09-21T17:12:50.980Z,101600.25
2022-09-21T17:15:53.364Z,101599.03
2022-09-21T17:18:54.981Z,101596.81
2022-09-21T17:21:56.813Z,101599.19
2022-09-21T17:24:58.511Z,101599.94
2022-09-21T17:28:01.902Z,101598.69
2022-09-21T17:31:03.911Z,101594.91
2022-09-21T17:34:10.504Z,101595.44
2022-09-21T17:37:12.587Z,101589.78
2022-09-21T17:40:14.865Z,101592.03
2022-09-21T17:43:40.063Z,101595.09
2022-09-21T17:46:53.464Z,101596.56
2022-09-21T17:50:19.698Z,101594.50
2022-09-21T17:53:41.004Z,101598.81
2022-09-21T17:56:53.943Z,101584.97
2022-09-21T19:37:25.700Z,101622.94
2022-09-21T19:52:14.472Z,101616.56
2022-09-21T19:59:48.570Z,101618.81
2022-09-21T20:03:31.595Z,101618.16
2022-09-21T20:06:44.117Z,101620.13
2022-09-21T20:10:16.004Z,101619.31
2022-09-21T20:13:22.861Z,101621.28
2022-09-21T20:16:45.985Z,101622.44
2022-09-21T20:20:14.454Z,101617.09
2022-09-21T20:23:30.504Z,101616.34
2022-09-21T20:26:32.558Z,101624.81
2022-09-21T20:29:50.412Z,101616.03
2022-09-21T20:33:05.364Z,101622.34
2022-09-21T20:36:13.697Z,101606.50
2022-09-21T20:39:24.356Z,101611.84
2022-09-21T20:42:45.144Z,101615.53
2022-09-21T20:45:50.982Z,101608.47
2022-09-21T20:49:08.961Z,101614.00
2022-09-21T20:52:16.684Z,101604.25
2022-09-21T20:56:02.781Z,101600.69
2022-09-21T20:59:12.262Z,101610.53
2022-09-21T21:02:44.922Z,101614.22
2022-09-21T21:06:11.457Z,101609.88
2022-09-21T21:09:38.077Z,101609.16
2022-09-21T21:12:43.054Z,101613.84
2022-09-21T21:16:12.069Z,101615.56
2022-09-21T21:19:26.776Z,101618.44
2022-09-21T21:23:31.786Z,101605.16
2022-09-21T21:26:57.353Z,101620.44
2022-09-21T21:29:59.768Z,101617.91
2022-09-21T21:33:01.858Z,101618.97
2022-09-21T21:36:15.297Z,101613.72
2022-09-21T21:39:19.401Z,101614.75
2022-09-21T21:42:50.070Z,101612.94
2022-09-21T21:45:53.163Z,101614.03
2022-09-21T21:49:02.880Z,101615.75
2022-09-21T21:52:25.201Z,101616.75
2022-09-21T21:55:27.020Z,101619.44
2022-09-21T21:58:28.886Z,101624.06
2022-09-21T22:01:31.160Z,101620.56
2022-09-21T22:04:32.986Z,101618.84
2022-09-21T22:07:34.765Z,101616.28
2022-09-21T22:10:36.549Z,101615.50
2022-09-21T22:13:39.747Z,101609.34
2022-09-21T22:16:41.651Z,101612.03
2022-09-21T22:19:46.967Z,101615.63
2022-09-21T22:23:16.703Z,101614.63
2022-09-21T22:26:31.972Z,101607.69
2022-09-21T22:30:01.098Z,101610.28
2022-09-21T22:33:05.330Z,101614.03
2022-09-21T22:37:03.314Z,101609.50
2022-09-21T22:40:09.580Z,101607.81
2022-09-21T22:43:26.070Z,101609.56
2022-09-21T22:46:29.362Z,101609.69
2022-09-21T22:50:28.770Z,101607.06
2022-09-21T22:59:07.364Z,101606.41
2022-09-21T23:19:19.561Z,101598.50
